sensor_id;sensor_type;location;lat;lon;timestamp;P1;durP1;ratioP1;P2;durP2;ratioP2
8327;SDS011;4201;48.754;8.864;2023-05-10T00:08:44;2.63;;;0.77;;
8327;SDS011;4201;48.754;8.864;2023-05-10T00:20:32;5.63;;;0.90;;
8327;SDS011;4201;48.754;8.864;2023-05-10T00:26:19;1.50;;;0.60;;
8327;SDS011;4201;48.754;8.864;2023-05-10T00:29:23;4.90;;;0.70;;
8327;SDS011;4201;48.754;8.864;2023-05-10T00:36:00;1.70;;;0.70;;
8327;SDS011;4201;48.754;8.864;2023-05-10T00:46:53;3.30;;;0.70;;
8327;SDS011;4201;48.754;8.864;2023-05-10T00:52:31;1.70;;;0.60;;
8327;SDS011;4201;48.754;8.864;2023-05-10T00:55:51;3.30;;;0.90;;
8327;SDS011;4201;48.754;8.864;2023-05-10T01:44:24;4.20;;;0.93;;
8327;SDS011;4201;48.754;8.864;2023-05-10T01:47:53;6.13;;;1.00;;
8327;SDS011;4201;48.754;8.864;2023-05-10T01:56:50;2.90;;;1.00;;
8327;SDS011;4201;48.754;8.864;2023-05-10T02:02:59;3.47;;;1.40;;
8327;SDS011;4201;48.754;8.864;2023-05-10T02:12:00;2.70;;;1.47;;
8327;SDS011;4201;48.754;8.864;2023-05-10T02:14:27;8.50;;;2.00;;
8327;SDS011;4201;48.754;8.864;2023-05-10T02:16:54;3.80;;;2.30;;
8327;SDS011;4201;48.754;8.864;2023-05-10T02:19:23;4.23;;;1.53;;
8327;SDS011;4201;48.754;8.864;2023-05-10T02:21:49;2.53;;;1.40;;
8327;SDS011;4201;48.754;8.864;2023-05-10T02:24:16;2.90;;;1.50;;
8327;SDS011;4201;48.754;8.864;2023-05-10T02:26:44;5.07;;;1.60;;
8327;SDS011;4201;48.754;8.864;2023-05-10T02:29:11;2.10;;;1.20;;
8327;SDS011;4201;48.754;8.864;2023-05-10T02:31:38;4.13;;;1.70;;
8327;SDS011;4201;48.754;8.864;2023-05-10T02:34:05;2.73;;;1.50;;
8327;SDS011;4201;48.754;8.864;2023-05-10T02:36:33;4.37;;;1.50;;
8327;SDS011;4201;48.754;8.864;2023-05-10T02:38:59;3.10;;;1.87;;
8327;SDS011;4201;48.754;8.864;2023-05-10T02:41:27;2.43;;;1.43;;
8327;SDS011;4201;48.754;8.864;2023-05-10T02:43:55;4.73;;;1.80;;
8327;SDS011;4201;48.754;8.864;2023-05-10T02:46:23;6.57;;;1.60;;
8327;SDS011;4201;48.754;8.864;2023-05-10T02:48:49;3.03;;;1.67;;
8327;SDS011;4201;48.754;8.864;2023-05-10T02:51:16;3.73;;;1.63;;
8327;SDS011;4201;48.754;8.864;2023-05-10T02:53:45;2.63;;;1.60;;
8327;SDS011;4201;48.754;8.864;2023-05-10T02:56:13;3.83;;;1.53;;
8327;SDS011;4201;48.754;8.864;2023-05-10T02:58:40;6.03;;;1.63;;
8327;SDS011;4201;48.754;8.864;2023-05-10T03:01:06;6.70;;;1.90;;
8327;SDS011;4201;48.754;8.864;2023-05-10T03:03:33;2.93;;;1.60;;
8327;SDS011;4201;48.754;8.864;2023-05-10T03:05:59;3.00;;;1.40;;
8327;SDS011;4201;48.754;8.864;2023-05-10T03:08:26;3.30;;;1.80;;
8327;SDS011;4201;48.754;8.864;2023-05-10T03:13:39;4.00;;;1.70;;
8327;SDS011;4201;48.754;8.864;2023-05-10T03:16:10;3.60;;;1.60;;
8327;SDS011;4201;48.754;8.864;2023-05-10T03:18:40;2.40;;;1.70;;
8327;SDS011;4201;48.754;8.864;2023-05-10T03:21:09;3.37;;;1.77;;
8327;SDS011;4201;48.754;8.864;2023-05-10T03:23:39;3.60;;;1.93;;
8327;SDS011;4201;48.754;8.864;2023-05-10T03:26:06;5.40;;;2.10;;
8327;SDS011;4201;48.754;8.864;2023-05-10T03:28:33;4.03;;;1.83;;
8327;SDS011;4201;48.754;8.864;2023-05-10T03:31:01;4.30;;;1.87;;
8327;SDS011;4201;48.754;8.864;2023-05-10T03:33:28;3.00;;;2.03;;
8327;SDS011;4201;48.754;8.864;2023-05-10T03:35:54;2.50;;;1.83;;
8327;SDS011;4201;48.754;8.864;2023-05-10T03:38:21;3.07;;;2.30;;
8327;SDS011;4201;48.754;8.864;2023-05-10T03:40:47;3.90;;;2.50;;
8327;SDS011;4201;48.754;8.864;2023-05-10T03:43:13;3.50;;;2.30;;
8327;SDS011;4201;48.754;8.864;2023-05-10T03:45:39;5.23;;;2.63;;
8327;SDS011;4201;48.754;8.864;2023-05-10T03:48:07;5.03;;;2.87;;
8327;SDS011;4201;48.754;8.864;2023-05-10T03:50:33;7.83;;;2.40;;
8327;SDS011;4201;48.754;8.864;2023-05-10T03:52:59;3.33;;;2.77;;
8327;SDS011;4201;48.754;8.864;2023-05-10T03:55:26;4.80;;;2.40;;
8327;SDS011;4201;48.754;8.864;2023-05-10T03:57:53;6.23;;;3.00;;
8327;SDS011;4201;48.754;8.864;2023-05-10T04:00:19;4.40;;;2.53;;
8327;SDS011;4201;48.754;8.864;2023-05-10T04:02:45;3.70;;;2.53;;
8327;SDS011;4201;48.754;8.864;2023-05-10T04:05:13;3.30;;;2.20;;
8327;SDS011;4201;48.754;8.864;2023-05-10T04:10:13;3.67;;;2.87;;
8327;SDS011;4201;48.754;8.864;2023-05-10T04:13:02;5.37;;;2.60;;
8327;SDS011;4201;48.754;8.864;2023-05-10T04:15:34;4.30;;;2.40;;
8327;SDS011;4201;48.754;8.864;2023-05-10T04:21:19;4.17;;;2.27;;
8327;SDS011;4201;48.754;8.864;2023-05-10T05:16:46;5.87;;;2.40;;
8327;SDS011;4201;48.754;8.864;2023-05-10T05:19:12;4.03;;;2.70;;
8327;SDS011;4201;48.754;8.864;2023-05-10T05:21:38;4.57;;;2.33;;
8327;SDS011;4201;48.754;8.864;2023-05-10T05:24:05;6.20;;;2.60;;
8327;SDS011;4201;48.754;8.864;2023-05-10T05:26:32;3.07;;;2.20;;
8327;SDS011;4201;48.754;8.864;2023-05-10T05:28:58;4.57;;;2.50;;
8327;SDS011;4201;48.754;8.864;2023-05-10T05:31:24;3.17;;;2.30;;
8327;SDS011;4201;48.754;8.864;2023-05-10T05:33:52;5.37;;;2.10;;
8327;SDS011;4201;48.754;8.864;2023-05-10T05:36:18;4.10;;;2.27;;
8327;SDS011;4201;48.754;8.864;2023-05-10T05:38:44;3.00;;;1.97;;
8327;SDS011;4201;48.754;8.864;2023-05-10T05:41:10;3.70;;;2.50;;
8327;SDS011;4201;48.754;8.864;2023-05-10T05:43:37;3.13;;;2.33;;
8327;SDS011;4201;48.754;8.864;2023-05-10T05:46:03;3.27;;;2.37;;
8327;SDS011;4201;48.754;8.864;2023-05-10T05:48:29;3.60;;;2.40;;
8327;SDS011;4201;48.754;8.864;2023-05-10T05:50:57;3.00;;;2.37;;
8327;SDS011;4201;48.754;8.864;2023-05-10T05:53:23;4.63;;;2.67;;
8327;SDS011;4201;48.754;8.864;2023-05-10T05:55:53;4.73;;;2.90;;
8327;SDS011;4201;48.754;8.864;2023-05-10T05:58:19;3.78;;;2.60;;
8327;SDS011;4201;48.754;8.864;2023-05-10T06:00:46;5.73;;;2.70;;
8327;SDS011;4201;48.754;8.864;2023-05-10T06:03:12;6.13;;;3.00;;
8327;SDS011;4201;48.754;8.864;2023-05-10T06:05:38;3.37;;;2.33;;
8327;SDS011;4201;48.754;8.864;2023-05-10T06:08:06;3.40;;;2.10;;
8327;SDS011;4201;48.754;8.864;2023-05-10T06:10:32;5.03;;;2.60;;
8327;SDS011;4201;48.754;8.864;2023-05-10T06:12:58;3.87;;;2.30;;
8327;SDS011;4201;48.754;8.864;2023-05-10T06:15:24;4.90;;;2.80;;
8327;SDS011;4201;48.754;8.864;2023-05-10T06:17:51;4.17;;;2.73;;
8327;SDS011;4201;48.754;8.864;2023-05-10T06:20:17;5.13;;;2.30;;
8327;SDS011;4201;48.754;8.864;2023-05-10T06:22:43;7.03;;;2.50;;
8327;SDS011;4201;48.754;8.864;2023-05-10T06:25:11;3.87;;;2.60;;
8327;SDS011;4201;48.754;8.864;2023-05-10T06:27:37;4.90;;;2.97;;
8327;SDS011;4201;48.754;8.864;2023-05-10T06:30:04;3.97;;;3.17;;
8327;SDS011;4201;48.754;8.864;2023-05-10T06:32:31;5.77;;;3.33;;
8327;SDS011;4201;48.754;8.864;2023-05-10T06:34:57;4.90;;;2.87;;
8327;SDS011;4201;48.754;8.864;2023-05-10T06:37:23;3.77;;;2.30;;
8327;SDS011;4201;48.754;8.864;2023-05-10T06:39:49;3.73;;;2.97;;
8327;SDS011;4201;48.754;8.864;2023-05-10T06:42:17;5.73;;;2.73;;
8327;SDS011;4201;48.754;8.864;2023-05-10T06:44:43;3.70;;;2.90;;
8327;SDS011;4201;48.754;8.864;2023-05-10T06:47:09;3.57;;;2.63;;
8327;SDS011;4201;48.754;8.864;2023-05-10T06:49:35;4.30;;;2.70;;
8327;SDS011;4201;48.754;8.864;2023-05-10T06:52:02;7.23;;;2.57;;
8327;SDS011;4201;48.754;8.864;2023-05-10T06:54:29;4.80;;;2.77;;
8327;SDS011;4201;48.754;8.864;2023-05-10T06:56:55;3.70;;;2.30;;
8327;SDS011;4201;48.754;8.864;2023-05-10T06:59:22;3.80;;;2.40;;
8327;SDS011;4201;48.754;8.864;2023-05-10T07:01:49;4.20;;;1.97;;
8327;SDS011;4201;48.754;8.864;2023-05-10T07:04:15;2.90;;;2.00;;
8327;SDS011;4201;48.754;8.864;2023-05-10T07:06:42;8.40;;;1.90;;
8327;SDS011;4201;48.754;8.864;2023-05-10T07:09:09;6.77;;;2.03;;
8327;SDS011;4201;48.754;8.864;2023-05-10T07:11:36;3.20;;;1.73;;
8327;SDS011;4201;48.754;8.864;2023-05-10T07:14:02;4.03;;;2.07;;
8327;SDS011;4201;48.754;8.864;2023-05-10T07:16:30;3.97;;;1.70;;
8327;SDS011;4201;48.754;8.864;2023-05-10T07:18:56;4.90;;;1.80;;
8327;SDS011;4201;48.754;8.864;2023-05-10T07:21:22;3.17;;;1.53;;
8327;SDS011;4201;48.754;8.864;2023-05-10T07:23:49;3.50;;;1.50;;
8327;SDS011;4201;48.754;8.864;2023-05-10T07:26:16;3.40;;;1.53;;
8327;SDS011;4201;48.754;8.864;2023-05-10T07:28:42;4.00;;;1.80;;
8327;SDS011;4201;48.754;8.864;2023-05-10T07:31:08;4.30;;;1.73;;
8327;SDS011;4201;48.754;8.864;2023-05-10T07:33:36;8.40;;;2.00;;
8327;SDS011;4201;48.754;8.864;2023-05-10T07:36:02;2.33;;;1.27;;
8327;SDS011;4201;48.754;8.864;2023-05-10T07:38:28;3.43;;;1.70;;
8327;SDS011;4201;48.754;8.864;2023-05-10T07:40:55;2.60;;;1.57;;
8327;SDS011;4201;48.754;8.864;2023-05-10T07:43:21;3.33;;;1.80;;
8327;SDS011;4201;48.754;8.864;2023-05-10T07:45:48;3.00;;;1.43;;
8327;SDS011;4201;48.754;8.864;2023-05-10T07:48:14;3.13;;;1.33;;
8327;SDS011;4201;48.754;8.864;2023-05-10T07:50:41;3.73;;;1.50;;
8327;SDS011;4201;48.754;8.864;2023-05-10T07:53:08;2.30;;;1.20;;
8327;SDS011;4201;48.754;8.864;2023-05-10T07:55:34;4.90;;;1.50;;
8327;SDS011;4201;48.754;8.864;2023-05-10T07:58:00;5.20;;;1.60;;
8327;SDS011;4201;48.754;8.864;2023-05-10T08:00:26;2.63;;;1.20;;
8327;SDS011;4201;48.754;8.864;2023-05-10T08:02:53;7.70;;;1.37;;
8327;SDS011;4201;48.754;8.864;2023-05-10T08:05:19;2.37;;;1.23;;
8327;SDS011;4201;48.754;8.864;2023-05-10T08:07:46;3.27;;;1.60;;
8327;SDS011;4201;48.754;8.864;2023-05-10T08:10:13;4.50;;;1.63;;
8327;SDS011;4201;48.754;8.864;2023-05-10T08:12:39;3.00;;;1.63;;
8327;SDS011;4201;48.754;8.864;2023-05-10T08:15:06;2.63;;;1.37;;
8327;SDS011;4201;48.754;8.864;2023-05-10T08:17:32;2.13;;;1.07;;
8327;SDS011;4201;48.754;8.864;2023-05-10T08:19:58;1.80;;;0.90;;
8327;SDS011;4201;48.754;8.864;2023-05-10T08:22:25;2.43;;;1.30;;
8327;SDS011;4201;48.754;8.864;2023-05-10T08:24:52;2.00;;;0.90;;
8327;SDS011;4201;48.754;8.864;2023-05-10T08:27:19;5.70;;;1.10;;
8327;SDS011;4201;48.754;8.864;2023-05-10T08:29:45;1.90;;;1.00;;
8327;SDS011;4201;48.754;8.864;2023-05-10T08:32:11;2.00;;;1.03;;
8327;SDS011;4201;48.754;8.864;2023-05-10T08:34:37;2.03;;;0.93;;
8327;SDS011;4201;48.754;8.864;2023-05-10T08:37:04;1.70;;;0.80;;
8327;SDS011;4201;48.754;8.864;2023-05-10T08:39:33;2.40;;;0.93;;
8327;SDS011;4201;48.754;8.864;2023-05-10T08:42:01;2.00;;;0.90;;
8327;SDS011;4201;48.754;8.864;2023-05-10T08:44:28;2.27;;;0.90;;
8327;SDS011;4201;48.754;8.864;2023-05-10T08:46:55;3.37;;;1.13;;
8327;SDS011;4201;48.754;8.864;2023-05-10T08:49:22;6.67;;;1.10;;
8327;SDS011;4201;48.754;8.864;2023-05-10T08:51:49;2.10;;;0.90;;
8327;SDS011;4201;48.754;8.864;2023-05-10T08:54:16;2.23;;;0.97;;
8327;SDS011;4201;48.754;8.864;2023-05-10T08:56:42;1.80;;;0.90;;
8327;SDS011;4201;48.754;8.864;2023-05-10T08:59:09;1.90;;;1.00;;
8327;SDS011;4201;48.754;8.864;2023-05-10T09:01:37;2.30;;;1.00;;
8327;SDS011;4201;48.754;8.864;2023-05-10T09:04:03;4.53;;;1.10;;
8327;SDS011;4201;48.754;8.864;2023-05-10T09:06:30;5.47;;;1.03;;
8327;SDS011;4201;48.754;8.864;2023-05-10T09:08:57;1.90;;;0.97;;
8327;SDS011;4201;48.754;8.864;2023-05-10T09:11:23;6.17;;;1.10;;
8327;SDS011;4201;48.754;8.864;2023-05-10T09:13:50;5.33;;;0.87;;
8327;SDS011;4201;48.754;8.864;2023-05-10T09:16:18;2.27;;;0.90;;
8327;SDS011;4201;48.754;8.864;2023-05-10T09:18:44;1.80;;;0.83;;
8327;SDS011;4201;48.754;8.864;2023-05-10T09:21:10;1.80;;;0.80;;
8327;SDS011;4201;48.754;8.864;2023-05-10T09:23:37;2.10;;;0.80;;
8327;SDS011;4201;48.754;8.864;2023-05-10T09:26:03;5.67;;;1.00;;
8327;SDS011;4201;48.754;8.864;2023-05-10T09:28:31;1.77;;;0.80;;
8327;SDS011;4201;48.754;8.864;2023-05-10T09:30:57;2.00;;;0.90;;
8327;SDS011;4201;48.754;8.864;2023-05-10T09:33:25;1.60;;;0.70;;
8327;SDS011;4201;48.754;8.864;2023-05-10T09:35:51;2.27;;;0.80;;
8327;SDS011;4201;48.754;8.864;2023-05-10T09:38:18;1.90;;;0.80;;
8327;SDS011;4201;48.754;8.864;2023-05-10T09:40:46;1.87;;;0.80;;
8327;SDS011;4201;48.754;8.864;2023-05-10T09:43:19;2.60;;;0.97;;
8327;SDS011;4201;48.754;8.864;2023-05-10T09:45:45;2.10;;;1.00;;
8327;SDS011;4201;48.754;8.864;2023-05-10T09:48:13;2.23;;;1.00;;
8327;SDS011;4201;48.754;8.864;2023-05-10T09:50:41;1.90;;;0.90;;
8327;SDS011;4201;48.754;8.864;2023-05-10T09:53:07;2.00;;;0.90;;
8327;SDS011;4201;48.754;8.864;2023-05-10T09:55:40;2.70;;;1.10;;
8327;SDS011;4201;48.754;8.864;2023-05-10T09:58:09;1.97;;;0.87;;
8327;SDS011;4201;48.754;8.864;2023-05-10T10:00:35;2.07;;;0.90;;
8327;SDS011;4201;48.754;8.864;2023-05-10T10:03:02;4.37;;;1.00;;
8327;SDS011;4201;48.754;8.864;2023-05-10T10:05:29;5.93;;;1.10;;
8327;SDS011;4201;48.754;8.864;2023-05-10T10:07:56;4.00;;;1.10;;
8327;SDS011;4201;48.754;8.864;2023-05-10T10:10:23;3.10;;;1.00;;
8327;SDS011;4201;48.754;8.864;2023-05-10T10:12:50;3.40;;;1.03;;
8327;SDS011;4201;48.754;8.864;2023-05-10T10:15:16;4.33;;;0.90;;
8327;SDS011;4201;48.754;8.864;2023-05-10T10:17:42;2.17;;;0.93;;
8327;SDS011;4201;48.754;8.864;2023-05-10T10:20:09;2.63;;;0.80;;
8327;SDS011;4201;48.754;8.864;2023-05-10T10:22:36;4.90;;;1.30;;
8327;SDS011;4201;48.754;8.864;2023-05-10T10:25:04;3.10;;;0.97;;
8327;SDS011;4201;48.754;8.864;2023-05-10T10:27:34;2.30;;;0.87;;
8327;SDS011;4201;48.754;8.864;2023-05-10T10:30:04;2.40;;;0.90;;
8327;SDS011;4201;48.754;8.864;2023-05-10T10:32:36;3.00;;;1.00;;
8327;SDS011;4201;48.754;8.864;2023-05-10T10:35:04;5.63;;;1.07;;
8327;SDS011;4201;48.754;8.864;2023-05-10T10:37:46;4.17;;;1.40;;
8327;SDS011;4201;48.754;8.864;2023-05-10T10:40:27;2.97;;;1.10;;
8327;SDS011;4201;48.754;8.864;2023-05-10T10:42:53;2.70;;;1.03;;
8327;SDS011;4201;48.754;8.864;2023-05-10T10:45:20;1.77;;;0.90;;
8327;SDS011;4201;48.754;8.864;2023-05-10T10:47:47;3.10;;;1.00;;
8327;SDS011;4201;48.754;8.864;2023-05-10T10:50:13;3.00;;;1.40;;
8327;SDS011;4201;48.754;8.864;2023-05-10T10:52:41;3.90;;;1.07;;
8327;SDS011;4201;48.754;8.864;2023-05-10T10:55:08;3.17;;;1.23;;
8327;SDS011;4201;48.754;8.864;2023-05-10T10:57:44;3.50;;;1.00;;
8327;SDS011;4201;48.754;8.864;2023-05-10T11:00:20;2.47;;;0.97;;
8327;SDS011;4201;48.754;8.864;2023-05-10T11:02:48;2.57;;;1.30;;
8327;SDS011;4201;48.754;8.864;2023-05-10T11:05:24;4.17;;;1.13;;
8327;SDS011;4201;48.754;8.864;2023-05-10T11:07:51;3.27;;;1.00;;
8327;SDS011;4201;48.754;8.864;2023-05-10T11:10:18;2.70;;;1.00;;
8327;SDS011;4201;48.754;8.864;2023-05-10T11:13:00;5.60;;;1.10;;
8327;SDS011;4201;48.754;8.864;2023-05-10T11:15:30;2.27;;;1.10;;
8327;SDS011;4201;48.754;8.864;2023-05-10T11:17:56;3.90;;;1.10;;
8327;SDS011;4201;48.754;8.864;2023-05-10T11:20:23;3.50;;;1.23;;
8327;SDS011;4201;48.754;8.864;2023-05-10T11:22:53;3.10;;;1.40;;
8327;SDS011;4201;48.754;8.864;2023-05-10T11:25:22;4.03;;;1.20;;
8327;SDS011;4201;48.754;8.864;2023-05-10T11:27:51;3.90;;;1.30;;
8327;SDS011;4201;48.754;8.864;2023-05-10T11:30:19;4.37;;;1.13;;
8327;SDS011;4201;48.754;8.864;2023-05-10T11:32:45;2.90;;;1.27;;
8327;SDS011;4201;48.754;8.864;2023-05-10T11:35:12;4.53;;;1.47;;
8327;SDS011;4201;48.754;8.864;2023-05-10T11:37:39;3.13;;;0.90;;
8327;SDS011;4201;48.754;8.864;2023-05-10T11:40:08;3.57;;;1.27;;
8327;SDS011;4201;48.754;8.864;2023-05-10T11:42:35;2.20;;;1.20;;
8327;SDS011;4201;48.754;8.864;2023-05-10T11:45:02;3.10;;;1.07;;
8327;SDS011;4201;48.754;8.864;2023-05-10T11:47:29;3.80;;;1.53;;
8327;SDS011;4201;48.754;8.864;2023-05-10T11:49:56;4.30;;;1.77;;
8327;SDS011;4201;48.754;8.864;2023-05-10T11:52:23;3.50;;;1.27;;
8327;SDS011;4201;48.754;8.864;2023-05-10T11:54:52;2.00;;;1.07;;
8327;SDS011;4201;48.754;8.864;2023-05-10T11:57:19;4.90;;;1.43;;
8327;SDS011;4201;48.754;8.864;2023-05-10T11:59:45;5.00;;;1.40;;
8327;SDS011;4201;48.754;8.864;2023-05-10T12:02:11;5.73;;;1.40;;
8327;SDS011;4201;48.754;8.864;2023-05-10T12:04:39;7.70;;;1.60;;
8327;SDS011;4201;48.754;8.864;2023-05-10T12:07:05;3.43;;;1.27;;
8327;SDS011;4201;48.754;8.864;2023-05-10T12:09:32;14.13;;;1.60;;
8327;SDS011;4201;48.754;8.864;2023-05-10T12:11:58;3.50;;;1.00;;
8327;SDS011;4201;48.754;8.864;2023-05-10T12:14:24;3.10;;;1.30;;
8327;SDS011;4201;48.754;8.864;2023-05-10T12:16:50;4.20;;;1.47;;
8327;SDS011;4201;48.754;8.864;2023-05-10T12:19:18;2.87;;;1.40;;
8327;SDS011;4201;48.754;8.864;2023-05-10T12:21:45;5.40;;;1.40;;
8327;SDS011;4201;48.754;8.864;2023-05-10T12:24:11;3.47;;;1.50;;
8327;SDS011;4201;48.754;8.864;2023-05-10T12:26:39;3.27;;;1.30;;
8327;SDS011;4201;48.754;8.864;2023-05-10T12:29:12;2.70;;;1.20;;
8327;SDS011;4201;48.754;8.864;2023-05-10T12:31:48;3.73;;;1.67;;
8327;SDS011;4201;48.754;8.864;2023-05-10T12:34:22;4.73;;;1.40;;
8327;SDS011;4201;48.754;8.864;2023-05-10T12:36:51;2.33;;;1.20;;
8327;SDS011;4201;48.754;8.864;2023-05-10T12:39:17;5.70;;;1.33;;
8327;SDS011;4201;48.754;8.864;2023-05-10T12:41:43;4.53;;;1.20;;
8327;SDS011;4201;48.754;8.864;2023-05-10T12:44:10;9.70;;;1.70;;
8327;SDS011;4201;48.754;8.864;2023-05-10T12:46:36;8.00;;;1.70;;
8327;SDS011;4201;48.754;8.864;2023-05-10T12:49:03;5.07;;;1.53;;
8327;SDS011;4201;48.754;8.864;2023-05-10T12:51:29;6.87;;;1.30;;
8327;SDS011;4201;48.754;8.864;2023-05-10T12:53:57;3.70;;;1.23;;
8327;SDS011;4201;48.754;8.864;2023-05-10T12:56:23;2.10;;;1.00;;
8327;SDS011;4201;48.754;8.864;2023-05-10T12:58:49;2.93;;;1.27;;
8327;SDS011;4201;48.754;8.864;2023-05-10T13:01:16;12.37;;;1.97;;
8327;SDS011;4201;48.754;8.864;2023-05-10T13:03:42;6.07;;;2.00;;
8327;SDS011;4201;48.754;8.864;2023-05-10T13:06:09;3.90;;;1.37;;
8327;SDS011;4201;48.754;8.864;2023-05-10T13:08:35;11.20;;;1.97;;
8327;SDS011;4201;48.754;8.864;2023-05-10T13:11:02;7.60;;;1.80;;
8327;SDS011;4201;48.754;8.864;2023-05-10T13:13:29;3.40;;;1.10;;
8327;SDS011;4201;48.754;8.864;2023-05-10T13:15:55;4.30;;;1.60;;
8327;SDS011;4201;48.754;8.864;2023-05-10T13:18:21;3.43;;;1.30;;
8327;SDS011;4201;48.754;8.864;2023-05-10T13:20:49;3.60;;;1.10;;
8327;SDS011;4201;48.754;8.864;2023-05-10T13:23:15;4.07;;;1.10;;
8327;SDS011;4201;48.754;8.864;2023-05-10T13:25:41;6.63;;;1.27;;
8327;SDS011;4201;48.754;8.864;2023-05-10T13:28:09;2.63;;;1.30;;
8327;SDS011;4201;48.754;8.864;2023-05-10T13:30:35;2.27;;;1.03;;
8327;SDS011;4201;48.754;8.864;2023-05-10T13:33:01;4.43;;;1.00;;
8327;SDS011;4201;48.754;8.864;2023-05-10T13:35:28;2.20;;;1.10;;
8327;SDS011;4201;48.754;8.864;2023-05-10T13:37:54;3.10;;;1.37;;
8327;SDS011;4201;48.754;8.864;2023-05-10T13:40:22;7.30;;;1.40;;
8327;SDS011;4201;48.754;8.864;2023-05-10T13:42:48;3.90;;;1.23;;
8327;SDS011;4201;48.754;8.864;2023-05-10T13:45:16;3.10;;;1.40;;
8327;SDS011;4201;48.754;8.864;2023-05-10T13:47:42;2.70;;;1.30;;
8327;SDS011;4201;48.754;8.864;2023-05-10T13:50:08;3.70;;;1.67;;
8327;SDS011;4201;48.754;8.864;2023-05-10T13:52:35;2.97;;;1.07;;
8327;SDS011;4201;48.754;8.864;2023-05-10T13:55:01;2.70;;;1.20;;
8327;SDS011;4201;48.754;8.864;2023-05-10T13:57:27;2.80;;;1.00;;
8327;SDS011;4201;48.754;8.864;2023-05-10T13:59:55;3.10;;;1.10;;
8327;SDS011;4201;48.754;8.864;2023-05-10T14:02:23;4.40;;;1.57;;
8327;SDS011;4201;48.754;8.864;2023-05-10T14:04:50;2.77;;;1.10;;
8327;SDS011;4201;48.754;8.864;2023-05-10T14:07:16;2.63;;;1.10;;
8327;SDS011;4201;48.754;8.864;2023-05-10T14:09:42;3.03;;;1.23;;
8327;SDS011;4201;48.754;8.864;2023-05-10T14:12:08;3.83;;;1.20;;
8327;SDS011;4201;48.754;8.864;2023-05-10T14:14:35;2.97;;;1.30;;
8327;SDS011;4201;48.754;8.864;2023-05-10T14:17:01;5.50;;;1.63;;
8327;SDS011;4201;48.754;8.864;2023-05-10T14:19:29;2.40;;;0.97;;
8327;SDS011;4201;48.754;8.864;2023-05-10T14:21:57;6.43;;;1.20;;
8327;SDS011;4201;48.754;8.864;2023-05-10T14:24:23;6.70;;;1.20;;
8327;SDS011;4201;48.754;8.864;2023-05-10T14:26:49;3.70;;;1.20;;
8327;SDS011;4201;48.754;8.864;2023-05-10T14:29:18;4.47;;;1.20;;
8327;SDS011;4201;48.754;8.864;2023-05-10T14:31:44;2.93;;;1.03;;
8327;SDS011;4201;48.754;8.864;2023-05-10T14:34:11;3.10;;;1.20;;
8327;SDS011;4201;48.754;8.864;2023-05-10T14:36:38;3.30;;;1.40;;
8327;SDS011;4201;48.754;8.864;2023-05-10T14:39:05;2.30;;;1.10;;
8327;SDS011;4201;48.754;8.864;2023-05-10T14:41:31;4.53;;;1.47;;
8327;SDS011;4201;48.754;8.864;2023-05-10T14:43:57;3.70;;;0.90;;
8327;SDS011;4201;48.754;8.864;2023-05-10T14:46:24;2.53;;;1.17;;
8327;SDS011;4201;48.754;8.864;2023-05-10T14:48:50;4.70;;;1.07;;
8327;SDS011;4201;48.754;8.864;2023-05-10T14:51:16;2.57;;;1.07;;
8327;SDS011;4201;48.754;8.864;2023-05-10T14:53:47;2.80;;;1.30;;
8327;SDS011;4201;48.754;8.864;2023-05-10T14:56:14;2.40;;;0.90;;
8327;SDS011;4201;48.754;8.864;2023-05-10T14:58:41;2.30;;;0.87;;
8327;SDS011;4201;48.754;8.864;2023-05-10T15:01:07;2.77;;;1.20;;
8327;SDS011;4201;48.754;8.864;2023-05-10T15:03:33;2.10;;;0.80;;
8327;SDS011;4201;48.754;8.864;2023-05-10T15:05:59;2.00;;;0.90;;
8327;SDS011;4201;48.754;8.864;2023-05-10T15:08:26;3.30;;;1.30;;
8327;SDS011;4201;48.754;8.864;2023-05-10T15:10:54;2.40;;;1.20;;
8327;SDS011;4201;48.754;8.864;2023-05-10T15:13:20;4.87;;;1.00;;
8327;SDS011;4201;48.754;8.864;2023-05-10T15:15:47;2.57;;;1.00;;
8327;SDS011;4201;48.754;8.864;2023-05-10T15:18:13;2.70;;;1.27;;
8327;SDS011;4201;48.754;8.864;2023-05-10T15:20:39;1.93;;;0.80;;
8327;SDS011;4201;48.754;8.864;2023-05-10T15:23:05;1.90;;;0.87;;
8327;SDS011;4201;48.754;8.864;2023-05-10T15:25:32;5.03;;;0.90;;
8327;SDS011;4201;48.754;8.864;2023-05-10T15:28:01;1.90;;;0.90;;
8327;SDS011;4201;48.754;8.864;2023-05-10T15:30:27;2.30;;;1.00;;
8327;SDS011;4201;48.754;8.864;2023-05-10T15:32:54;3.57;;;1.27;;
8327;SDS011;4201;48.754;8.864;2023-05-10T15:35:20;2.27;;;0.97;;
8327;SDS011;4201;48.754;8.864;2023-05-10T15:37:47;1.80;;;0.70;;
8327;SDS011;4201;48.754;8.864;2023-05-10T15:40:13;3.30;;;0.90;;
8327;SDS011;4201;48.754;8.864;2023-05-10T15:42:39;3.80;;;0.97;;
8327;SDS011;4201;48.754;8.864;2023-05-10T15:45:07;7.60;;;0.93;;
8327;SDS011;4201;48.754;8.864;2023-05-10T15:47:34;2.03;;;0.97;;
8327;SDS011;4201;48.754;8.864;2023-05-10T15:50:00;2.33;;;1.00;;
8327;SDS011;4201;48.754;8.864;2023-05-10T15:52:26;2.50;;;0.87;;
8327;SDS011;4201;48.754;8.864;2023-05-10T15:54:53;1.70;;;0.80;;
8327;SDS011;4201;48.754;8.864;2023-05-10T15:57:19;2.40;;;1.10;;
8327;SDS011;4201;48.754;8.864;2023-05-10T15:59:45;2.97;;;0.83;;
8327;SDS011;4201;48.754;8.864;2023-05-10T16:02:13;2.40;;;0.90;;
8327;SDS011;4201;48.754;8.864;2023-05-10T16:04:39;4.37;;;1.33;;
8327;SDS011;4201;48.754;8.864;2023-05-10T16:07:06;2.97;;;0.73;;
8327;SDS011;4201;48.754;8.864;2023-05-10T16:09:32;4.30;;;1.00;;
8327;SDS011;4201;48.754;8.864;2023-05-10T16:11:58;2.03;;;0.90;;
8327;SDS011;4201;48.754;8.864;2023-05-10T16:14:26;2.67;;;0.90;;
8327;SDS011;4201;48.754;8.864;2023-05-10T16:16:52;3.50;;;1.00;;
8327;SDS011;4201;48.754;8.864;2023-05-10T16:19:19;3.50;;;1.33;;
8327;SDS011;4201;48.754;8.864;2023-05-10T16:21:46;5.00;;;1.00;;
8327;SDS011;4201;48.754;8.864;2023-05-10T16:24:13;3.47;;;1.20;;
8327;SDS011;4201;48.754;8.864;2023-05-10T16:26:39;2.20;;;1.00;;
8327;SDS011;4201;48.754;8.864;2023-05-10T16:29:06;2.10;;;0.97;;
8327;SDS011;4201;48.754;8.864;2023-05-10T16:31:32;3.30;;;1.67;;
8327;SDS011;4201;48.754;8.864;2023-05-10T16:33:58;2.73;;;1.13;;
8327;SDS011;4201;48.754;8.864;2023-05-10T16:36:26;2.77;;;1.00;;
8327;SDS011;4201;48.754;8.864;2023-05-10T16:38:52;1.93;;;1.17;;
8327;SDS011;4201;48.754;8.864;2023-05-10T16:41:19;1.80;;;0.87;;
8327;SDS011;4201;48.754;8.864;2023-05-10T16:43:45;4.30;;;0.93;;
8327;SDS011;4201;48.754;8.864;2023-05-10T16:46:12;7.93;;;4.40;;
8327;SDS011;4201;48.754;8.864;2023-05-10T16:48:38;3.30;;;1.10;;
8327;SDS011;4201;48.754;8.864;2023-05-10T16:51:04;3.23;;;0.80;;
8327;SDS011;4201;48.754;8.864;2023-05-10T16:53:32;2.43;;;0.90;;
8327;SDS011;4201;48.754;8.864;2023-05-10T16:55:58;2.73;;;2.00;;
8327;SDS011;4201;48.754;8.864;2023-05-10T16:58:25;3.47;;;1.80;;
8327;SDS011;4201;48.754;8.864;2023-05-10T17:00:51;2.80;;;1.00;;
8327;SDS011;4201;48.754;8.864;2023-05-10T17:03:17;1.60;;;0.80;;
8327;SDS011;4201;48.754;8.864;2023-05-10T17:05:43;2.40;;;0.90;;
8327;SDS011;4201;48.754;8.864;2023-05-10T17:08:10;1.80;;;0.90;;
8327;SDS011;4201;48.754;8.864;2023-05-10T17:10:39;4.73;;;1.10;;
8327;SDS011;4201;48.754;8.864;2023-05-10T17:13:05;3.13;;;1.10;;
8327;SDS011;4201;48.754;8.864;2023-05-10T17:15:31;2.10;;;1.10;;
8327;SDS011;4201;48.754;8.864;2023-05-10T17:17:58;3.63;;;1.00;;
8327;SDS011;4201;48.754;8.864;2023-05-10T17:20:24;5.47;;;1.30;;
8327;SDS011;4201;48.754;8.864;2023-05-10T17:22:50;3.33;;;1.10;;
8327;SDS011;4201;48.754;8.864;2023-05-10T17:25:16;2.80;;;1.10;;
8327;SDS011;4201;48.754;8.864;2023-05-10T17:27:44;2.07;;;1.10;;
8327;SDS011;4201;48.754;8.864;2023-05-10T17:30:11;1.90;;;1.00;;
8327;SDS011;4201;48.754;8.864;2023-05-10T17:32:37;2.73;;;1.17;;
8327;SDS011;4201;48.754;8.864;2023-05-10T17:35:04;4.13;;;0.90;;
8327;SDS011;4201;48.754;8.864;2023-05-10T17:37:30;3.30;;;1.20;;
8327;SDS011;4201;48.754;8.864;2023-05-10T17:39:58;2.33;;;1.00;;
8327;SDS011;4201;48.754;8.864;2023-05-10T17:42:24;2.30;;;0.93;;
8327;SDS011;4201;48.754;8.864;2023-05-10T17:44:52;3.73;;;1.10;;
8327;SDS011;4201;48.754;8.864;2023-05-10T17:47:18;4.10;;;1.10;;
8327;SDS011;4201;48.754;8.864;2023-05-10T17:49:44;3.27;;;1.10;;
8327;SDS011;4201;48.754;8.864;2023-05-10T17:52:10;4.10;;;1.23;;
8327;SDS011;4201;48.754;8.864;2023-05-10T17:54:37;4.00;;;1.47;;
8327;SDS011;4201;48.754;8.864;2023-05-10T17:57:03;1.73;;;0.80;;